createdAt,value
2022-12-04T00:06:14.047Z,13.3
2022-12-04T00:12:36.897Z,15.4
2022-12-04T00:18:56.977Z,15.4
2022-12-04T00:25:19.894Z,16.1
2022-12-04T00:31:40.052Z,16.1
2022-12-04T00:38:03.015Z,12.1
2022-12-04T00:44:22.965Z,12.1
2022-12-04T00:50:46.094Z,12
2022-12-04T00:57:06.115Z,12
2022-12-04T01:03:28.922Z,21.4
2022-12-04T01:09:49.120Z,21.4
2022-12-04T01:16:12.034Z,9.2
2022-12-04T01:22:31.934Z,9.2
2022-12-04T01:28:55.001Z,12.1
2022-12-04T01:35:15.054Z,12.1
2022-12-04T01:41:37.898Z,10.7
2022-12-04T01:47:57.948Z,10.7
2022-12-04T01:54:21.062Z,13.4
2022-12-04T02:00:40.991Z,13.4
2022-12-04T02:07:03.903Z,8.3
2022-12-04T02:13:24.065Z,8.3
2022-12-04T02:19:46.886Z,17.9
2022-12-04T02:26:07.050Z,17.9
2022-12-04T02:32:29.922Z,8.2
2022-12-04T02:38:49.949Z,8.2
2022-12-04T02:45:13.003Z,7.7
2022-12-04T02:51:32.998Z,7.7
2022-12-04T02:57:55.868Z,8.9
2022-12-04T03:04:16.014Z,8.9
2022-12-04T03:10:38.910Z,9.1
2022-12-04T03:16:59.002Z,9.1
2022-12-04T03:23:21.886Z,6.4
2022-12-04T03:29:42.057Z,6.4
2022-12-04T03:36:04.879Z,15.1
2022-12-04T03:42:25.016Z,15.1
2022-12-04T03:48:47.920Z,8.5
2022-12-04T03:55:08.133Z,8.5
2022-12-04T04:01:30.981Z,6.7
2022-12-04T04:07:50.976Z,6.7
2022-12-04T04:14:13.895Z,3.6
2022-12-04T04:30:20.755Z,10.2
2022-12-04T04:36:43.384Z,6
2022-12-04T04:43:02.916Z,6
2022-12-04T04:49:26.071Z,5.7
2022-12-04T04:55:45.913Z,5.7
2022-12-04T05:02:08.970Z,24.5
2022-12-04T05:08:29.050Z,24.5
2022-12-04T05:14:51.976Z,4.4
2022-12-04T05:21:11.988Z,4.4
2022-12-04T05:27:34.989Z,10.7
2022-12-04T05:33:54.922Z,10.7
2022-12-04T05:40:17.915Z,6.4
2022-12-04T05:46:38.024Z,6.4
2022-12-04T05:53:00.902Z,12.6
2022-12-04T05:59:21.005Z,12.6
2022-12-04T06:05:43.996Z,9.9
2022-12-04T06:12:03.881Z,9.9
2022-12-04T06:18:26.958Z,6
2022-12-04T06:24:46.970Z,6
2022-12-04T06:31:09.969Z,4.7
2022-12-04T06:37:29.925Z,4.7
2022-12-04T06:43:53.128Z,11.6
2022-12-04T06:50:12.963Z,11.6
2022-12-04T06:56:35.905Z,14.4
2022-12-04T07:02:55.910Z,14.4
2022-12-04T07:09:18.995Z,10.1
2022-12-04T07:15:38.885Z,10.1
2022-12-04T07:22:02.076Z,9
2022-12-04T07:28:21.892Z,9
2022-12-04T07:34:44.902Z,10.1
2022-12-04T07:41:05.095Z,10.1
2022-12-04T07:47:27.916Z,14.1
2022-12-04T07:53:47.916Z,14.1
2022-12-04T08:00:10.934Z,10.7
2022-12-04T08:06:30.911Z,10.7
2022-12-04T08:12:54.054Z,10.9
2022-12-04T08:19:13.927Z,10.9
2022-12-04T08:25:36.944Z,7.6
2022-12-04T08:31:57.020Z,7.6
2022-12-04T08:38:19.933Z,3
2022-12-04T08:44:39.959Z,3
2022-12-04T08:51:03.003Z,6.4
2022-12-04T08:57:23.009Z,6.4
2022-12-04T09:03:45.934Z,9
2022-12-04T09:10:05.977Z,9
2022-12-04T09:16:29.030Z,7.7
2022-12-04T09:39:16.844Z,7.7
2022-12-04T09:45:36.882Z,7.7
2022-12-04T09:51:59.908Z,16.4
2022-12-04T09:58:19.966Z,16.4
2022-12-04T10:04:42.992Z,9
2022-12-04T10:11:02.931Z,9
2022-12-04T10:17:30.989Z,4.6
2022-12-04T10:23:45.966Z,4.6
2022-12-04T10:30:08.895Z,8.6
2022-12-04T10:36:29.040Z,8.6
2022-12-04T10:42:52.050Z,8.2
2022-12-04T10:49:11.892Z,8.2
2022-12-04T10:55:34.933Z,13.3
2022-12-04T11:01:55.108Z,13.3
2022-12-04T11:08:19.896Z,9.9
2022-12-04T11:14:39.850Z,9.9
2022-12-04T11:21:01.859Z,10.4
2022-12-04T11:27:21.988Z,10.4
2022-12-04T11:33:45.057Z,16.1
2022-12-04T11:40:04.903Z,16.1
2022-12-04T11:46:28.188Z,14.9
2022-12-04T11:52:48.027Z,14.9
2022-12-04T11:59:10.917Z,10
2022-12-04T12:05:37.275Z,10
2022-12-04T12:11:59.912Z,7.2
2022-12-04T12:18:20.869Z,7.2
2022-12-04T12:24:45.616Z,5.9
2022-12-04T12:31:05.916Z,5.9
2022-12-04T12:37:26.056Z,7.9
2022-12-04T12:43:46.023Z,7.9
2022-12-04T12:50:08.944Z,6.9
2022-12-04T12:56:29.044Z,6.9
2022-12-04T13:02:51.926Z,5.1
2022-12-04T13:09:12.169Z,5.1
2022-12-04T13:15:34.913Z,6.6
2022-12-04T13:21:54.895Z,6.6
2022-12-04T13:28:18.035Z,19.8
2022-12-04T13:34:37.882Z,19.8
2022-12-04T13:41:00.924Z,9.9
2022-12-04T13:47:21.047Z,9.9
2022-12-04T13:53:43.929Z,9
2022-12-04T14:00:04.097Z,9
2022-12-04T14:06:27.057Z,8.7
2022-12-04T14:12:46.991Z,8.7
2022-12-04T14:19:09.900Z,15.6
2022-12-04T14:25:29.928Z,15.6
2022-12-04T14:49:39.134Z,23.7
2022-12-04T14:56:06.041Z,23.7
2022-12-04T15:02:21.986Z,23.7
2022-12-04T15:08:44.971Z,30.1
2022-12-04T15:15:05.043Z,30.1
2022-12-04T15:21:28.019Z,8.5
2022-12-04T15:27:47.964Z,8.5
2022-12-04T15:34:10.901Z,20.9
2022-12-04T15:40:30.887Z,20.9
2022-12-04T15:46:54.115Z,10.4
2022-12-04T15:53:14.184Z,10.4
2022-12-04T15:59:36.979Z,15.1
2022-12-04T16:05:56.935Z,15.1
2022-12-04T16:12:20.101Z,9.6
2022-12-04T16:18:39.882Z,9.6
2022-12-04T16:25:02.966Z,13.3
2022-12-04T16:31:23.023Z,13.3
2022-12-04T16:37:45.926Z,13.1
2022-12-04T16:44:06.022Z,13.1
2022-12-04T16:50:29.021Z,5.1
2022-12-04T16:56:48.922Z,5.1
2022-12-04T17:03:12.100Z,5.3
2022-12-04T17:09:31.993Z,5.3
2022-12-04T17:15:55.068Z,8.9
2022-12-04T17:22:14.895Z,8.9
2022-12-04T17:28:38.049Z,19.4
2022-12-04T17:34:58.139Z,19.4
2022-12-04T17:41:21.023Z,15.8
2022-12-04T17:47:41.002Z,15.8
2022-12-04T17:54:03.970Z,25.1
2022-12-04T18:00:24.064Z,25.1
2022-12-04T18:06:46.878Z,8.3
2022-12-04T18:13:07.448Z,8.3
2022-12-04T18:19:31.120Z,16.6
2022-12-04T18:25:51.006Z,16.6
2022-12-04T18:32:14.135Z,10.2
2022-12-04T18:38:34.058Z,10.2
2022-12-04T18:44:56.965Z,13.6
2022-12-04T18:51:16.895Z,13.6
2022-12-04T18:57:40.091Z,5.2
2022-12-04T19:04:00.086Z,5.2
2022-12-04T19:10:23.514Z,8.2
2022-12-04T19:16:43.100Z,8.2
2022-12-04T19:23:05.928Z,10.2
2022-12-04T19:29:25.886Z,10.2
2022-12-04T19:46:11.650Z,14.3
2022-12-04T19:52:31.907Z,14.3
2022-12-04T19:58:54.912Z,26.4
2022-12-04T20:05:15.108Z,26.4
2022-12-04T20:11:37.865Z,26.4
2022-12-04T20:17:57.897Z,26.4
2022-12-04T20:24:20.996Z,16.7
2022-12-04T20:30:40.975Z,16.7
2022-12-04T20:37:03.940Z,19.8
2022-12-04T20:43:24.037Z,19.8
2022-12-04T20:49:47.038Z,22.4
2022-12-04T20:56:07.118Z,22.4
2022-12-04T21:02:30.074Z,19.4
2022-12-04T21:08:49.917Z,19.4
2022-12-04T21:15:13.232Z,16.1
2022-12-04T21:21:32.917Z,16.1
2022-12-04T21:27:56.000Z,5.6
2022-12-04T21:34:15.912Z,5.6
2022-12-04T21:40:42.259Z,26.5
2022-12-04T21:46:58.973Z,26.5
2022-12-04T21:53:21.973Z,23.9
2022-12-04T21:59:41.926Z,23.9
2022-12-04T22:06:04.877Z,12.6
2022-12-04T22:18:48.133Z,16.4
2022-12-04T22:25:08.059Z,16.4
2022-12-04T22:31:31.088Z,24.9
2022-12-04T22:37:51.005Z,24.9
2022-12-04T22:44:14.013Z,21.2
2022-12-04T22:50:33.958Z,21.2
2022-12-04T22:56:56.977Z,16.4
2022-12-04T23:22:27.951Z,39.6
2022-12-04T23:28:47.904Z,39.6
2022-12-04T23:35:10.985Z,39.6
2022-12-04T23:41:31.010Z,39.6
2022-12-04T23:47:54.055Z,15.2
2022-12-04T23:54:13.868Z,15.2
